sensor_id;sensor_type;location;lat;lon;timestamp;temperature;humidity
9383;DHT22;4731;49.708;10.816;2022-07-29T00:01:22;20.80;99.90
9383;DHT22;4731;49.708;10.816;2022-07-29T00:03:49;21.20;99.90
9383;DHT22;4731;49.708;10.816;2022-07-29T00:08:46;20.90;99.90
9383;DHT22;4731;49.708;10.816;2022-07-29T00:11:13;20.80;99.90
9383;DHT22;4731;49.708;10.816;2022-07-29T00:13:40;20.80;99.90
9383;DHT22;4731;49.708;10.816;2022-07-29T00:16:06;20.70;99.90
9383;DHT22;4731;49.708;10.816;2022-07-29T00:18:33;22.10;99.90
9383;DHT22;4731;49.708;10.816;2022-07-29T00:21:00;20.70;99.90
9383;DHT22;4731;49.708;10.816;2022-07-29T00:25:55;20.70;99.90
9383;DHT22;4731;49.708;10.816;2022-07-29T00:28:22;20.70;99.90
9383;DHT22;4731;49.708;10.816;2022-07-29T00:30:49;21.80;99.90
9383;DHT22;4731;49.708;10.816;2022-07-29T00:33:16;20.80;99.90
9383;DHT22;4731;49.708;10.816;2022-07-29T00:35:43;22.80;99.90
9383;DHT22;4731;49.708;10.816;2022-07-29T00:38:12;22.60;99.90
9383;DHT22;4731;49.708;10.816;2022-07-29T00:43:08;20.80;99.90
9383;DHT22;4731;49.708;10.816;2022-07-29T00:45:35;20.70;99.90
9383;DHT22;4731;49.708;10.816;2022-07-29T00:48:02;20.70;99.90
9383;DHT22;4731;49.708;10.816;2022-07-29T00:50:31;20.70;99.90
9383;DHT22;4731;49.708;10.816;2022-07-29T00:52:58;20.80;99.90
9383;DHT22;4731;49.708;10.816;2022-07-29T00:55:25;20.70;99.90
9383;DHT22;4731;49.708;10.816;2022-07-29T00:57:54;20.70;99.90
9383;DHT22;4731;49.708;10.816;2022-07-29T01:00:23;20.70;99.90
9383;DHT22;4731;49.708;10.816;2022-07-29T01:05:19;20.70;99.90
9383;DHT22;4731;49.708;10.816;2022-07-29T01:07:49;20.70;99.90
9383;DHT22;4731;49.708;10.816;2022-07-29T01:10:18;21.90;99.90
9383;DHT22;4731;49.708;10.816;2022-07-29T01:12:47;20.80;99.90
9383;DHT22;4731;49.708;10.816;2022-07-29T01:15:16;20.70;99.90
9383;DHT22;4731;49.708;10.816;2022-07-29T01:17:44;20.60;99.90
9383;DHT22;4731;49.708;10.816;2022-07-29T01:20:16;20.70;99.90
9383;DHT22;4731;49.708;10.816;2022-07-29T01:23:08;20.60;99.90
9383;DHT22;4731;49.708;10.816;2022-07-29T01:25:58;20.60;99.90
9383;DHT22;4731;49.708;10.816;2022-07-29T01:28:57;20.50;99.90
9383;DHT22;4731;49.708;10.816;2022-07-29T01:31:31;20.50;99.90
9383;DHT22;4731;49.708;10.816;2022-07-29T01:34:01;23.10;99.90
9383;DHT22;4731;49.708;10.816;2022-07-29T01:36:32;20.70;99.90
9383;DHT22;4731;49.708;10.816;2022-07-29T01:39:05;21.60;99.90
9383;DHT22;4731;49.708;10.816;2022-07-29T01:41:34;20.40;99.90
9383;DHT22;4731;49.708;10.816;2022-07-29T01:44:11;20.30;99.90
9383;DHT22;4731;49.708;10.816;2022-07-29T01:46:44;20.40;99.90
9383;DHT22;4731;49.708;10.816;2022-07-29T01:49:15;22.30;99.90
9383;DHT22;4731;49.708;10.816;2022-07-29T01:51:46;20.20;99.90
9383;DHT22;4731;49.708;10.816;2022-07-29T01:54:18;20.20;99.90
9383;DHT22;4731;49.708;10.816;2022-07-29T01:56:49;20.20;99.90
9383;DHT22;4731;49.708;10.816;2022-07-29T01:59:20;20.20;99.90
9383;DHT22;4731;49.708;10.816;2022-07-29T02:01:48;20.20;99.90
9383;DHT22;4731;49.708;10.816;2022-07-29T02:04:18;20.10;99.90
9383;DHT22;4731;49.708;10.816;2022-07-29T02:06:47;20.00;99.90
9383;DHT22;4731;49.708;10.816;2022-07-29T02:09:16;21.80;99.90
9383;DHT22;4731;49.708;10.816;2022-07-29T02:11:48;22.30;99.90
9383;DHT22;4731;49.708;10.816;2022-07-29T02:14:19;19.90;99.90
9383;DHT22;4731;49.708;10.816;2022-07-29T02:16:47;19.80;99.90
9383;DHT22;4731;49.708;10.816;2022-07-29T02:19:17;19.70;99.90
9383;DHT22;4731;49.708;10.816;2022-07-29T02:21:45;19.60;99.90
9383;DHT22;4731;49.708;10.816;2022-07-29T02:24:14;21.70;99.90
9383;DHT22;4731;49.708;10.816;2022-07-29T02:26:43;22.40;99.90
9383;DHT22;4731;49.708;10.816;2022-07-29T02:29:12;19.40;99.90
9383;DHT22;4731;49.708;10.816;2022-07-29T02:34:10;19.30;99.90
9383;DHT22;4731;49.708;10.816;2022-07-29T02:36:38;19.30;99.90
9383;DHT22;4731;49.708;10.816;2022-07-29T02:39:08;19.10;99.90
9383;DHT22;4731;49.708;10.816;2022-07-29T02:41:42;19.10;99.90
9383;DHT22;4731;49.708;10.816;2022-07-29T02:44:11;19.00;99.90
9383;DHT22;4731;49.708;10.816;2022-07-29T02:46:45;19.00;99.90
9383;DHT22;4731;49.708;10.816;2022-07-29T02:49:16;18.90;99.90
9383;DHT22;4731;49.708;10.816;2022-07-29T02:51:46;19.50;99.90
9383;DHT22;4731;49.708;10.816;2022-07-29T02:54:22;18.80;99.90
9383;DHT22;4731;49.708;10.816;2022-07-29T02:56:50;21.10;99.90
9383;DHT22;4731;49.708;10.816;2022-07-29T02:59:23;18.60;99.90
9383;DHT22;4731;49.708;10.816;2022-07-29T03:01:54;18.50;99.90
9383;DHT22;4731;49.708;10.816;2022-07-29T03:04:22;18.50;99.90
9383;DHT22;4731;49.708;10.816;2022-07-29T03:06:51;18.50;99.90
9383;DHT22;4731;49.708;10.816;2022-07-29T03:09:19;18.50;99.90
9383;DHT22;4731;49.708;10.816;2022-07-29T03:11:47;18.40;99.90
9383;DHT22;4731;49.708;10.816;2022-07-29T03:14:16;18.40;99.90
9383;DHT22;4731;49.708;10.816;2022-07-29T03:16:43;18.30;99.90
9383;DHT22;4731;49.708;10.816;2022-07-29T03:19:11;18.20;99.90
9383;DHT22;4731;49.708;10.816;2022-07-29T03:21:38;18.60;99.90
9383;DHT22;4731;49.708;10.816;2022-07-29T03:24:06;19.00;99.90
9383;DHT22;4731;49.708;10.816;2022-07-29T03:26:33;18.10;99.90
9383;DHT22;4731;49.708;10.816;2022-07-29T03:28:59;21.00;99.90
9383;DHT22;4731;49.708;10.816;2022-07-29T03:31:26;18.00;99.90
9383;DHT22;4731;49.708;10.816;2022-07-29T03:33:53;17.90;99.90
9383;DHT22;4731;49.708;10.816;2022-07-29T03:41:16;17.90;99.90
9383;DHT22;4731;49.708;10.816;2022-07-29T03:43:45;17.80;99.90
9383;DHT22;4731;49.708;10.816;2022-07-29T03:46:14;17.80;99.90
9383;DHT22;4731;49.708;10.816;2022-07-29T03:48:46;17.70;99.90
9383;DHT22;4731;49.708;10.816;2022-07-29T03:53:43;17.70;99.90
9383;DHT22;4731;49.708;10.816;2022-07-29T03:56:10;17.60;99.90
9383;DHT22;4731;49.708;10.816;2022-07-29T03:58:42;17.60;99.90
9383;DHT22;4731;49.708;10.816;2022-07-29T04:01:10;17.70;99.90
9383;DHT22;4731;49.708;10.816;2022-07-29T04:03:38;17.70;99.90
9383;DHT22;4731;49.708;10.816;2022-07-29T04:06:06;17.60;99.90
9383;DHT22;4731;49.708;10.816;2022-07-29T04:08:34;17.70;99.90
9383;DHT22;4731;49.708;10.816;2022-07-29T04:11:03;19.90;99.90
9383;DHT22;4731;49.708;10.816;2022-07-29T04:18:24;17.90;99.90
9383;DHT22;4731;49.708;10.816;2022-07-29T04:35:36;17.40;99.90
9383;DHT22;4731;49.708;10.816;2022-07-29T04:52:48;18.60;99.90
9383;DHT22;4731;49.708;10.816;2022-07-29T04:57:42;18.80;99.90
9383;DHT22;4731;49.708;10.816;2022-07-29T05:00:09;19.50;99.90
9383;DHT22;4731;49.708;10.816;2022-07-29T05:02:38;18.80;99.90
9383;DHT22;4731;49.708;10.816;2022-07-29T05:05:05;19.00;99.90
9383;DHT22;4731;49.708;10.816;2022-07-29T05:07:32;19.20;99.90
9383;DHT22;4731;49.708;10.816;2022-07-29T05:09:58;19.30;99.90
9383;DHT22;4731;49.708;10.816;2022-07-29T05:12:25;19.50;99.90
9383;DHT22;4731;49.708;10.816;2022-07-29T05:14:53;19.60;99.90
9383;DHT22;4731;49.708;10.816;2022-07-29T05:17:19;19.70;99.90
9383;DHT22;4731;49.708;10.816;2022-07-29T05:19:48;20.00;99.90
9383;DHT22;4731;49.708;10.816;2022-07-29T05:22:16;20.70;99.90
9383;DHT22;4731;49.708;10.816;2022-07-29T05:24:43;20.20;99.90
9383;DHT22;4731;49.708;10.816;2022-07-29T05:27:10;20.20;99.90
9383;DHT22;4731;49.708;10.816;2022-07-29T05:29:37;20.20;99.90
9383;DHT22;4731;49.708;10.816;2022-07-29T05:32:05;20.20;99.90
9383;DHT22;4731;49.708;10.816;2022-07-29T05:34:32;20.20;99.90
9383;DHT22;4731;49.708;10.816;2022-07-29T05:37:00;20.10;99.90
9383;DHT22;4731;49.708;10.816;2022-07-29T05:39:27;21.40;99.90
9383;DHT22;4731;49.708;10.816;2022-07-29T05:41:53;20.20;99.90
9383;DHT22;4731;49.708;10.816;2022-07-29T05:44:20;20.20;99.90
9383;DHT22;4731;49.708;10.816;2022-07-29T05:46:47;20.50;99.90
9383;DHT22;4731;49.708;10.816;2022-07-29T05:54:09;20.80;99.90
9383;DHT22;4731;49.708;10.816;2022-07-29T05:56:36;20.80;99.90
9383;DHT22;4731;49.708;10.816;2022-07-29T05:59:03;21.20;99.90
9383;DHT22;4731;49.708;10.816;2022-07-29T06:01:30;21.50;99.90
9383;DHT22;4731;49.708;10.816;2022-07-29T06:03:57;21.50;99.90
9383;DHT22;4731;49.708;10.816;2022-07-29T06:06:24;21.80;99.90
9383;DHT22;4731;49.708;10.816;2022-07-29T06:08:51;21.80;99.90
9383;DHT22;4731;49.708;10.816;2022-07-29T06:11:19;22.00;99.90
9383;DHT22;4731;49.708;10.816;2022-07-29T06:13:46;22.10;99.90
9383;DHT22;4731;49.708;10.816;2022-07-29T06:26:04;23.30;99.90
9383;DHT22;4731;49.708;10.816;2022-07-29T06:38:33;23.30;99.90
9383;DHT22;4731;49.708;10.816;2022-07-29T06:41:00;23.60;99.90
9383;DHT22;4731;49.708;10.816;2022-07-29T06:43:32;24.10;99.90
9383;DHT22;4731;49.708;10.816;2022-07-29T06:46:01;24.20;99.90
9383;DHT22;4731;49.708;10.816;2022-07-29T06:53:23;24.40;99.90
9383;DHT22;4731;49.708;10.816;2022-07-29T06:55:49;23.70;99.90
9383;DHT22;4731;49.708;10.816;2022-07-29T07:03:14;23.20;99.90
9383;DHT22;4731;49.708;10.816;2022-07-29T07:05:41;23.10;99.90
9383;DHT22;4731;49.708;10.816;2022-07-29T07:15:29;24.20;99.90
9383;DHT22;4731;49.708;10.816;2022-07-29T07:20:25;24.00;99.90
9383;DHT22;4731;49.708;10.816;2022-07-29T07:22:51;25.00;99.90
9383;DHT22;4731;49.708;10.816;2022-07-29T07:42:31;25.90;99.90
9383;DHT22;4731;49.708;10.816;2022-07-29T07:44:58;25.80;99.90
9383;DHT22;4731;49.708;10.816;2022-07-29T07:52:21;26.50;99.90
9383;DHT22;4731;49.708;10.816;2022-07-29T07:54:48;26.40;99.90
9383;DHT22;4731;49.708;10.816;2022-07-29T07:57:15;26.30;99.90
9383;DHT22;4731;49.708;10.816;2022-07-29T07:59:42;26.30;99.90
9383;DHT22;4731;49.708;10.816;2022-07-29T08:07:06;26.40;99.90
9383;DHT22;4731;49.708;10.816;2022-07-29T08:09:34;27.20;99.90
9383;DHT22;4731;49.708;10.816;2022-07-29T08:12:02;26.50;99.90
9383;DHT22;4731;49.708;10.816;2022-07-29T08:14:31;26.90;99.90
9383;DHT22;4731;49.708;10.816;2022-07-29T08:19:25;28.20;99.90
9383;DHT22;4731;49.708;10.816;2022-07-29T08:21:52;28.80;99.90
9383;DHT22;4731;49.708;10.816;2022-07-29T08:24:19;29.10;99.90
9383;DHT22;4731;49.708;10.816;2022-07-29T08:27:05;29.00;99.90
9383;DHT22;4731;49.708;10.816;2022-07-29T08:29:32;28.70;99.90
9383;DHT22;4731;49.708;10.816;2022-07-29T08:31:58;28.80;99.90
9383;DHT22;4731;49.708;10.816;2022-07-29T08:34:25;28.30;99.90
9383;DHT22;4731;49.708;10.816;2022-07-29T08:36:52;28.10;99.90
9383;DHT22;4731;49.708;10.816;2022-07-29T08:39:19;28.80;99.90
9383;DHT22;4731;49.708;10.816;2022-07-29T08:41:45;27.80;99.90
9383;DHT22;4731;49.708;10.816;2022-07-29T08:44:15;28.60;99.90
9383;DHT22;4731;49.708;10.816;2022-07-29T08:46:42;30.90;99.90
9383;DHT22;4731;49.708;10.816;2022-07-29T08:51:37;28.60;99.90
9383;DHT22;4731;49.708;10.816;2022-07-29T08:54:05;27.50;99.90
9383;DHT22;4731;49.708;10.816;2022-07-29T08:56:33;27.80;99.90
9383;DHT22;4731;49.708;10.816;2022-07-29T08:59:03;28.50;99.90
9383;DHT22;4731;49.708;10.816;2022-07-29T09:01:33;28.10;99.90
9383;DHT22;4731;49.708;10.816;2022-07-29T09:04:03;27.90;99.90
9383;DHT22;4731;49.708;10.816;2022-07-29T09:06:32;27.50;99.90
9383;DHT22;4731;49.708;10.816;2022-07-29T09:09:01;27.80;99.90
9383;DHT22;4731;49.708;10.816;2022-07-29T09:11:27;28.10;99.90
9383;DHT22;4731;49.708;10.816;2022-07-29T09:13:54;28.00;99.90
9383;DHT22;4731;49.708;10.816;2022-07-29T09:16:21;28.40;99.90
9383;DHT22;4731;49.708;10.816;2022-07-29T09:18:49;28.70;99.90
9383;DHT22;4731;49.708;10.816;2022-07-29T09:21:17;28.40;99.90
9383;DHT22;4731;49.708;10.816;2022-07-29T09:24:04;28.30;99.90
9383;DHT22;4731;49.708;10.816;2022-07-29T09:26:33;28.30;99.90
9383;DHT22;4731;49.708;10.816;2022-07-29T09:29:00;29.00;99.90
9383;DHT22;4731;49.708;10.816;2022-07-29T09:31:34;29.70;99.90
9383;DHT22;4731;49.708;10.816;2022-07-29T09:34:03;29.80;99.90
9383;DHT22;4731;49.708;10.816;2022-07-29T09:36:30;30.00;99.90
9383;DHT22;4731;49.708;10.816;2022-07-29T09:41:25;30.40;99.90
9383;DHT22;4731;49.708;10.816;2022-07-29T09:43:55;30.50;99.90
9383;DHT22;4731;49.708;10.816;2022-07-29T09:46:24;30.70;99.90
9383;DHT22;4731;49.708;10.816;2022-07-29T09:49:08;31.00;99.90
9383;DHT22;4731;49.708;10.816;2022-07-29T09:56:40;30.30;99.90
9383;DHT22;4731;49.708;10.816;2022-07-29T09:59:08;31.90;99.90
9383;DHT22;4731;49.708;10.816;2022-07-29T10:01:36;31.80;99.90
9383;DHT22;4731;49.708;10.816;2022-07-29T10:04:10;31.70;99.50
9383;DHT22;4731;49.708;10.816;2022-07-29T10:06:55;31.30;99.10
9383;DHT22;4731;49.708;10.816;2022-07-29T10:12:07;32.10;98.40
9383;DHT22;4731;49.708;10.816;2022-07-29T10:14:35;32.10;98.80
9383;DHT22;4731;49.708;10.816;2022-07-29T10:17:03;32.40;97.70
9383;DHT22;4731;49.708;10.816;2022-07-29T10:19:32;31.80;97.80
9383;DHT22;4731;49.708;10.816;2022-07-29T10:22:02;31.80;97.70
9383;DHT22;4731;49.708;10.816;2022-07-29T10:24:30;31.90;97.90
9383;DHT22;4731;49.708;10.816;2022-07-29T10:26:59;31.70;98.00
9383;DHT22;4731;49.708;10.816;2022-07-29T10:32:04;31.70;98.30
9383;DHT22;4731;49.708;10.816;2022-07-29T10:34:49;31.70;98.10
9383;DHT22;4731;49.708;10.816;2022-07-29T10:37:24;31.70;98.10
9383;DHT22;4731;49.708;10.816;2022-07-29T10:40:00;31.80;96.80
9383;DHT22;4731;49.708;10.816;2022-07-29T10:42:53;32.10;97.00
9383;DHT22;4731;49.708;10.816;2022-07-29T10:50:56;30.90;97.10
9383;DHT22;4731;49.708;10.816;2022-07-29T10:53:38;30.80;97.20
9383;DHT22;4731;49.708;10.816;2022-07-29T10:56:23;31.60;97.30
9383;DHT22;4731;49.708;10.816;2022-07-29T10:59:25;31.20;96.50
9383;DHT22;4731;49.708;10.816;2022-07-29T11:01:56;31.00;96.80
9383;DHT22;4731;49.708;10.816;2022-07-29T11:05:00;32.00;97.80
9383;DHT22;4731;49.708;10.816;2022-07-29T11:07:30;32.70;95.30
9383;DHT22;4731;49.708;10.816;2022-07-29T11:10:23;32.80;95.70
9383;DHT22;4731;49.708;10.816;2022-07-29T11:12:50;33.80;95.80
9383;DHT22;4731;49.708;10.816;2022-07-29T11:15:20;34.50;94.60
9383;DHT22;4731;49.708;10.816;2022-07-29T11:18:06;34.90;93.50
9383;DHT22;4731;49.708;10.816;2022-07-29T11:20:38;35.00;92.20
9383;DHT22;4731;49.708;10.816;2022-07-29T11:23:23;34.70;91.80
9383;DHT22;4731;49.708;10.816;2022-07-29T11:26:13;35.30;91.60
9383;DHT22;4731;49.708;10.816;2022-07-29T11:28:49;35.00;90.90
9383;DHT22;4731;49.708;10.816;2022-07-29T11:31:19;34.80;91.20
9383;DHT22;4731;49.708;10.816;2022-07-29T11:34:19;35.00;91.30
9383;DHT22;4731;49.708;10.816;2022-07-29T11:37:19;35.90;90.50
9383;DHT22;4731;49.708;10.816;2022-07-29T11:40:12;36.00;88.00
9383;DHT22;4731;49.708;10.816;2022-07-29T11:42:47;36.40;86.40
9383;DHT22;4731;49.708;10.816;2022-07-29T11:45:18;36.30;85.10
9383;DHT22;4731;49.708;10.816;2022-07-29T11:47:51;36.20;84.60
9383;DHT22;4731;49.708;10.816;2022-07-29T11:50:29;36.30;85.30
9383;DHT22;4731;49.708;10.816;2022-07-29T11:55:26;34.80;84.70
9383;DHT22;4731;49.708;10.816;2022-07-29T11:57:54;34.80;85.70
9383;DHT22;4731;49.708;10.816;2022-07-29T12:00:24;33.70;86.10
9383;DHT22;4731;49.708;10.816;2022-07-29T12:02:51;36.60;89.40
9383;DHT22;4731;49.708;10.816;2022-07-29T12:05:19;33.50;89.30
9383;DHT22;4731;49.708;10.816;2022-07-29T12:07:47;34.60;87.70
9383;DHT22;4731;49.708;10.816;2022-07-29T12:12:51;35.20;85.80
9383;DHT22;4731;49.708;10.816;2022-07-29T12:15:19;35.50;87.60
9383;DHT22;4731;49.708;10.816;2022-07-29T12:17:47;35.90;86.40
9383;DHT22;4731;49.708;10.816;2022-07-29T12:20:22;36.10;82.70
9383;DHT22;4731;49.708;10.816;2022-07-29T12:25:20;36.10;81.30
9383;DHT22;4731;49.708;10.816;2022-07-29T12:27:58;35.80;82.70
9383;DHT22;4731;49.708;10.816;2022-07-29T12:30:35;35.30;82.40
9383;DHT22;4731;49.708;10.816;2022-07-29T12:33:14;35.10;81.20
9383;DHT22;4731;49.708;10.816;2022-07-29T12:35:42;35.10;82.90
9383;DHT22;4731;49.708;10.816;2022-07-29T12:38:10;35.90;81.70
9383;DHT22;4731;49.708;10.816;2022-07-29T12:40:39;36.10;80.90
9383;DHT22;4731;49.708;10.816;2022-07-29T12:43:10;36.60;80.10
9383;DHT22;4731;49.708;10.816;2022-07-29T12:45:38;37.00;78.20
9383;DHT22;4731;49.708;10.816;2022-07-29T12:48:06;36.50;77.90
9383;DHT22;4731;49.708;10.816;2022-07-29T12:50:35;34.40;79.60
9383;DHT22;4731;49.708;10.816;2022-07-29T12:53:11;34.20;81.10
9383;DHT22;4731;49.708;10.816;2022-07-29T12:55:43;33.70;81.00
9383;DHT22;4731;49.708;10.816;2022-07-29T12:58:12;34.30;87.30
9383;DHT22;4731;49.708;10.816;2022-07-29T13:08:12;33.70;90.00
9383;DHT22;4731;49.708;10.816;2022-07-29T13:10:39;30.50;88.70
9383;DHT22;4731;49.708;10.816;2022-07-29T13:13:08;32.70;91.00
9383;DHT22;4731;49.708;10.816;2022-07-29T13:15:38;32.40;91.40
9383;DHT22;4731;49.708;10.816;2022-07-29T13:18:26;32.40;91.40
9383;DHT22;4731;49.708;10.816;2022-07-29T13:20:54;32.20;92.40
9383;DHT22;4731;49.708;10.816;2022-07-29T13:23:20;31.90;92.20
9383;DHT22;4731;49.708;10.816;2022-07-29T13:25:49;32.20;92.30
9383;DHT22;4731;49.708;10.816;2022-07-29T13:28:16;32.50;92.60
9383;DHT22;4731;49.708;10.816;2022-07-29T13:38:06;33.10;91.80
9383;DHT22;4731;49.708;10.816;2022-07-29T13:43:00;33.20;91.20
9383;DHT22;4731;49.708;10.816;2022-07-29T13:55:19;33.00;91.10
9383;DHT22;4731;49.708;10.816;2022-07-29T14:00:14;32.40;92.10
9383;DHT22;4731;49.708;10.816;2022-07-29T14:15:00;30.30;95.30
9383;DHT22;4731;49.708;10.816;2022-07-29T14:17:28;30.20;95.20
9383;DHT22;4731;49.708;10.816;2022-07-29T14:19:55;30.00;95.90
9383;DHT22;4731;49.708;10.816;2022-07-29T14:24:51;29.60;96.90
9383;DHT22;4731;49.708;10.816;2022-07-29T14:27:21;29.30;97.40
9383;DHT22;4731;49.708;10.816;2022-07-29T14:29:49;29.10;98.20
9383;DHT22;4731;49.708;10.816;2022-07-29T14:32:17;29.00;98.60
9383;DHT22;4731;49.708;10.816;2022-07-29T14:34:43;28.90;99.40
9383;DHT22;4731;49.708;10.816;2022-07-29T14:37:10;28.00;99.90
9383;DHT22;4731;49.708;10.816;2022-07-29T14:42:06;27.10;99.90
9383;DHT22;4731;49.708;10.816;2022-07-29T14:44:33;26.90;99.90
9383;DHT22;4731;49.708;10.816;2022-07-29T14:47:00;26.20;99.90
9383;DHT22;4731;49.708;10.816;2022-07-29T14:49:29;25.20;99.90
9383;DHT22;4731;49.708;10.816;2022-07-29T14:51:57;24.80;99.90
9383;DHT22;4731;49.708;10.816;2022-07-29T14:54:24;24.50;99.90
9383;DHT22;4731;49.708;10.816;2022-07-29T14:56:52;23.50;99.90
9383;DHT22;4731;49.708;10.816;2022-07-29T14:59:22;23.40;99.90
9383;DHT22;4731;49.708;10.816;2022-07-29T15:01:49;22.90;99.90
9383;DHT22;4731;49.708;10.816;2022-07-29T15:04:16;22.60;99.90
9383;DHT22;4731;49.708;10.816;2022-07-29T15:06:43;22.20;99.90
9383;DHT22;4731;49.708;10.816;2022-07-29T15:16:35;21.00;99.90
9383;DHT22;4731;49.708;10.816;2022-07-29T15:21:29;20.50;99.90
9383;DHT22;4731;49.708;10.816;2022-07-29T15:23:56;20.40;99.90
9383;DHT22;4731;49.708;10.816;2022-07-29T15:26:23;20.40;99.90
9383;DHT22;4731;49.708;10.816;2022-07-29T15:28:50;20.40;99.90
9383;DHT22;4731;49.708;10.816;2022-07-29T15:33:46;20.10;99.90
9383;DHT22;4731;49.708;10.816;2022-07-29T15:36:13;20.20;99.90
9383;DHT22;4731;49.708;10.816;2022-07-29T15:38:40;22.10;99.90
9383;DHT22;4731;49.708;10.816;2022-07-29T15:41:07;20.40;99.90
9383;DHT22;4731;49.708;10.816;2022-07-29T15:43:34;20.30;99.90
9383;DHT22;4731;49.708;10.816;2022-07-29T15:46:01;20.10;99.90
9383;DHT22;4731;49.708;10.816;2022-07-29T15:48:47;20.10;99.90
9383;DHT22;4731;49.708;10.816;2022-07-29T15:51:15;20.50;99.90
9383;DHT22;4731;49.708;10.816;2022-07-29T15:53:42;20.40;99.90
9383;DHT22;4731;49.708;10.816;2022-07-29T15:56:09;20.50;99.90
9383;DHT22;4731;49.708;10.816;2022-07-29T15:58:37;20.60;99.90
9383;DHT22;4731;49.708;10.816;2022-07-29T16:01:04;20.70;99.90
9383;DHT22;4731;49.708;10.816;2022-07-29T16:03:30;21.10;99.90
9383;DHT22;4731;49.708;10.816;2022-07-29T16:05:59;23.50;99.90
9383;DHT22;4731;49.708;10.816;2022-07-29T16:08:26;20.60;99.90
9383;DHT22;4731;49.708;10.816;2022-07-29T16:10:53;20.50;99.90
9383;DHT22;4731;49.708;10.816;2022-07-29T16:13:20;20.50;99.90
9383;DHT22;4731;49.708;10.816;2022-07-29T16:15:46;20.50;99.90
9383;DHT22;4731;49.708;10.816;2022-07-29T16:18:13;20.50;99.90
9383;DHT22;4731;49.708;10.816;2022-07-29T16:20:40;20.70;99.90
9383;DHT22;4731;49.708;10.816;2022-07-29T16:23:09;20.50;99.90
9383;DHT22;4731;49.708;10.816;2022-07-29T16:25:37;20.50;99.90
9383;DHT22;4731;49.708;10.816;2022-07-29T16:28:05;20.50;99.90
9383;DHT22;4731;49.708;10.816;2022-07-29T16:30:33;20.40;99.90
9383;DHT22;4731;49.708;10.816;2022-07-29T16:33:00;20.40;99.90
9383;DHT22;4731;49.708;10.816;2022-07-29T16:37:55;20.30;99.90
9383;DHT22;4731;49.708;10.816;2022-07-29T16:40:24;20.30;99.90
9383;DHT22;4731;49.708;10.816;2022-07-29T16:42:51;20.30;99.90
9383;DHT22;4731;49.708;10.816;2022-07-29T16:45:18;20.30;99.90
9383;DHT22;4731;49.708;10.816;2022-07-29T16:47:45;20.30;99.90
9383;DHT22;4731;49.708;10.816;2022-07-29T16:50:12;20.30;99.90
9383;DHT22;4731;49.708;10.816;2022-07-29T16:52:39;22.00;99.90
9383;DHT22;4731;49.708;10.816;2022-07-29T16:55:06;20.40;99.90
9383;DHT22;4731;49.708;10.816;2022-07-29T16:57:35;20.40;99.90
9383;DHT22;4731;49.708;10.816;2022-07-29T17:00:04;20.40;99.90
9383;DHT22;4731;49.708;10.816;2022-07-29T17:02:31;19.20;99.90
9383;DHT22;4731;49.708;10.816;2022-07-29T17:04:58;20.40;99.90
9383;DHT22;4731;49.708;10.816;2022-07-29T17:07:25;20.50;99.90
9383;DHT22;4731;49.708;10.816;2022-07-29T17:09:51;20.40;99.90
9383;DHT22;4731;49.708;10.816;2022-07-29T17:12:18;20.40;99.90
9383;DHT22;4731;49.708;10.816;2022-07-29T17:17:14;20.20;99.90
9383;DHT22;4731;49.708;10.816;2022-07-29T17:19:42;20.10;99.90
9383;DHT22;4731;49.708;10.816;2022-07-29T17:22:08;19.90;99.90
9383;DHT22;4731;49.708;10.816;2022-07-29T17:27:02;19.80;99.90
9383;DHT22;4731;49.708;10.816;2022-07-29T17:29:29;19.80;99.90
9383;DHT22;4731;49.708;10.816;2022-07-29T17:31:58;19.70;99.90
9383;DHT22;4731;49.708;10.816;2022-07-29T17:34:25;19.70;99.90
9383;DHT22;4731;49.708;10.816;2022-07-29T17:36:52;19.70;99.90
9383;DHT22;4731;49.708;10.816;2022-07-29T17:39:19;19.60;99.90
9383;DHT22;4731;49.708;10.816;2022-07-29T17:41:46;19.50;99.90
9383;DHT22;4731;49.708;10.816;2022-07-29T17:44:13;19.50;99.90
9383;DHT22;4731;49.708;10.816;2022-07-29T17:46:40;19.50;99.90
9383;DHT22;4731;49.708;10.816;2022-07-29T17:49:08;19.50;99.90
9383;DHT22;4731;49.708;10.816;2022-07-29T17:51:35;19.50;99.90
9383;DHT22;4731;49.708;10.816;2022-07-29T17:54:02;20.90;99.90
9383;DHT22;4731;49.708;10.816;2022-07-29T17:56:28;19.30;99.90
9383;DHT22;4731;49.708;10.816;2022-07-29T17:58:55;19.20;99.90
9383;DHT22;4731;49.708;10.816;2022-07-29T18:01:25;19.00;99.90
9383;DHT22;4731;49.708;10.816;2022-07-29T18:11:15;18.40;99.90
9383;DHT22;4731;49.708;10.816;2022-07-29T18:16:09;18.70;99.90
9383;DHT22;4731;49.708;10.816;2022-07-29T18:18:36;18.70;99.90
9383;DHT22;4731;49.708;10.816;2022-07-29T18:26:00;18.90;99.90
9383;DHT22;4731;49.708;10.816;2022-07-29T18:28:27;18.80;99.90
9383;DHT22;4731;49.708;10.816;2022-07-29T18:33:22;18.90;99.90
9383;DHT22;4731;49.708;10.816;2022-07-29T18:35:51;18.80;99.90
9383;DHT22;4731;49.708;10.816;2022-07-29T18:38:18;18.80;99.90
9383;DHT22;4731;49.708;10.816;2022-07-29T18:40:47;18.70;99.90
9383;DHT22;4731;49.708;10.816;2022-07-29T18:43:14;18.60;99.90
9383;DHT22;4731;49.708;10.816;2022-07-29T18:48:08;18.60;99.90
9383;DHT22;4731;49.708;10.816;2022-07-29T18:50:35;19.40;99.90
9383;DHT22;4731;49.708;10.816;2022-07-29T18:53:03;20.30;99.90
9383;DHT22;4731;49.708;10.816;2022-07-29T19:00:26;18.40;99.90
9383;DHT22;4731;49.708;10.816;2022-07-29T19:02:53;19.20;99.90
9383;DHT22;4731;49.708;10.816;2022-07-29T19:05:20;18.50;99.90
9383;DHT22;4731;49.708;10.816;2022-07-29T19:07:47;18.50;99.90
9383;DHT22;4731;49.708;10.816;2022-07-29T19:12:42;18.60;99.90
9383;DHT22;4731;49.708;10.816;2022-07-29T19:15:11;19.70;99.90
9383;DHT22;4731;49.708;10.816;2022-07-29T19:17:37;18.70;99.90
9383;DHT22;4731;49.708;10.816;2022-07-29T19:20:05;19.10;99.90
9383;DHT22;4731;49.708;10.816;2022-07-29T19:24:59;18.50;99.90
9383;DHT22;4731;49.708;10.816;2022-07-29T19:27:26;18.40;99.90
9383;DHT22;4731;49.708;10.816;2022-07-29T19:32:22;18.30;99.90
9383;DHT22;4731;49.708;10.816;2022-07-29T19:34:49;19.40;99.90
9383;DHT22;4731;49.708;10.816;2022-07-29T19:37:30;18.40;99.90
9383;DHT22;4731;49.708;10.816;2022-07-29T19:42:24;18.40;99.90
9383;DHT22;4731;49.708;10.816;2022-07-29T19:44:50;18.40;99.90
9383;DHT22;4731;49.708;10.816;2022-07-29T19:47:17;18.40;99.90
9383;DHT22;4731;49.708;10.816;2022-07-29T19:49:45;18.80;99.90
9383;DHT22;4731;49.708;10.816;2022-07-29T19:52:12;18.50;99.90
9383;DHT22;4731;49.708;10.816;2022-07-29T19:54:39;20.30;99.90
9383;DHT22;4731;49.708;10.816;2022-07-29T19:57:06;19.50;99.90
9383;DHT22;4731;49.708;10.816;2022-07-29T20:02:00;18.50;99.90
9383;DHT22;4731;49.708;10.816;2022-07-29T20:04:26;20.40;99.90
9383;DHT22;4731;49.708;10.816;2022-07-29T20:06:55;19.10;99.90
9383;DHT22;4731;49.708;10.816;2022-07-29T20:09:25;18.90;99.90
9383;DHT22;4731;49.708;10.816;2022-07-29T20:11:52;18.60;99.90
9383;DHT22;4731;49.708;10.816;2022-07-29T20:14:19;20.60;99.90
9383;DHT22;4731;49.708;10.816;2022-07-29T20:16:46;19.10;99.90
9383;DHT22;4731;49.708;10.816;2022-07-29T20:19:12;20.60;99.90
9383;DHT22;4731;49.708;10.816;2022-07-29T20:21:39;19.30;99.90